sensor_id;sensor_type;location;lat;lon;timestamp;temperature;humidity
3416;DHT22;1721;51.238;9.562;2022-08-03T00:01:33;19.50;91.80
3416;DHT22;1721;51.238;9.562;2022-08-03T00:03:59;19.60;91.80
3416;DHT22;1721;51.238;9.562;2022-08-03T00:06:25;19.50;91.80
3416;DHT22;1721;51.238;9.562;2022-08-03T00:08:50;19.50;91.90
3416;DHT22;1721;51.238;9.562;2022-08-03T00:11:16;19.50;91.90
3416;DHT22;1721;51.238;9.562;2022-08-03T00:13:42;19.50;91.90
3416;DHT22;1721;51.238;9.562;2022-08-03T00:16:08;19.50;92.00
3416;DHT22;1721;51.238;9.562;2022-08-03T00:18:35;19.50;92.00
3416;DHT22;1721;51.238;9.562;2022-08-03T00:21:02;19.50;92.00
3416;DHT22;1721;51.238;9.562;2022-08-03T00:23:28;19.40;92.00
3416;DHT22;1721;51.238;9.562;2022-08-03T00:25:54;19.40;92.00
3416;DHT22;1721;51.238;9.562;2022-08-03T00:28:20;19.40;92.00
3416;DHT22;1721;51.238;9.562;2022-08-03T00:30:45;19.30;92.10
3416;DHT22;1721;51.238;9.562;2022-08-03T00:33:11;19.30;92.30
3416;DHT22;1721;51.238;9.562;2022-08-03T00:35:36;19.30;92.20
3416;DHT22;1721;51.238;9.562;2022-08-03T00:38:02;19.30;92.20
3416;DHT22;1721;51.238;9.562;2022-08-03T00:40:27;19.30;92.20
3416;DHT22;1721;51.238;9.562;2022-08-03T00:42:54;19.30;92.20
3416;DHT22;1721;51.238;9.562;2022-08-03T00:45:21;19.30;92.30
3416;DHT22;1721;51.238;9.562;2022-08-03T00:47:47;19.20;92.30
3416;DHT22;1721;51.238;9.562;2022-08-03T00:50:14;19.20;92.20
3416;DHT22;1721;51.238;9.562;2022-08-03T00:52:40;19.20;92.30
3416;DHT22;1721;51.238;9.562;2022-08-03T00:55:06;19.20;92.30
3416;DHT22;1721;51.238;9.562;2022-08-03T00:57:32;19.20;92.60
3416;DHT22;1721;51.238;9.562;2022-08-03T00:59:58;19.20;92.40
3416;DHT22;1721;51.238;9.562;2022-08-03T01:02:27;19.20;92.40
3416;DHT22;1721;51.238;9.562;2022-08-03T01:04:53;19.20;92.40
3416;DHT22;1721;51.238;9.562;2022-08-03T01:07:40;19.20;92.40
3416;DHT22;1721;51.238;9.562;2022-08-03T01:13:20;19.10;92.40
3416;DHT22;1721;51.238;9.562;2022-08-03T01:18:30;19.10;92.50
3416;DHT22;1721;51.238;9.562;2022-08-03T01:20:57;19.10;92.50
3416;DHT22;1721;51.238;9.562;2022-08-03T01:26:47;18.90;92.60
3416;DHT22;1721;51.238;9.562;2022-08-03T01:29:46;19.00;92.70
3416;DHT22;1721;51.238;9.562;2022-08-03T01:32:19;19.00;92.60
3416;DHT22;1721;51.238;9.562;2022-08-03T01:34:57;19.00;92.70
3416;DHT22;1721;51.238;9.562;2022-08-03T01:37:26;19.00;92.60
3416;DHT22;1721;51.238;9.562;2022-08-03T01:39:56;19.00;92.50
3416;DHT22;1721;51.238;9.562;2022-08-03T01:42:23;19.00;92.60
3416;DHT22;1721;51.238;9.562;2022-08-03T01:44:51;18.90;92.60
3416;DHT22;1721;51.238;9.562;2022-08-03T01:47:19;18.90;92.60
3416;DHT22;1721;51.238;9.562;2022-08-03T01:49:45;18.90;92.60
3416;DHT22;1721;51.238;9.562;2022-08-03T01:52:14;18.90;92.60
3416;DHT22;1721;51.238;9.562;2022-08-03T01:54:43;18.90;92.60
3416;DHT22;1721;51.238;9.562;2022-08-03T01:57:10;18.90;92.60
3416;DHT22;1721;51.238;9.562;2022-08-03T01:59:38;18.90;92.60
3416;DHT22;1721;51.238;9.562;2022-08-03T02:02:04;18.90;92.60
3416;DHT22;1721;51.238;9.562;2022-08-03T02:04:31;18.90;92.60
3416;DHT22;1721;51.238;9.562;2022-08-03T02:06:57;18.80;92.60
3416;DHT22;1721;51.238;9.562;2022-08-03T02:09:24;18.90;92.70
3416;DHT22;1721;51.238;9.562;2022-08-03T02:11:52;18.90;92.70
3416;DHT22;1721;51.238;9.562;2022-08-03T02:14:19;18.80;92.60
3416;DHT22;1721;51.238;9.562;2022-08-03T02:16:46;18.80;92.60
3416;DHT22;1721;51.238;9.562;2022-08-03T02:19:12;18.80;92.70
3416;DHT22;1721;51.238;9.562;2022-08-03T02:21:39;18.90;92.70
3416;DHT22;1721;51.238;9.562;2022-08-03T02:24:06;18.90;92.70
3416;DHT22;1721;51.238;9.562;2022-08-03T02:26:34;18.80;92.60
3416;DHT22;1721;51.238;9.562;2022-08-03T02:29:06;18.90;92.70
3416;DHT22;1721;51.238;9.562;2022-08-03T02:31:36;18.80;92.60
3416;DHT22;1721;51.238;9.562;2022-08-03T02:34:07;18.80;92.70
3416;DHT22;1721;51.238;9.562;2022-08-03T02:36:36;18.80;92.70
3416;DHT22;1721;51.238;9.562;2022-08-03T02:39:04;18.80;92.80
3416;DHT22;1721;51.238;9.562;2022-08-03T02:41:36;18.80;92.70
3416;DHT22;1721;51.238;9.562;2022-08-03T02:44:08;18.70;92.70
3416;DHT22;1721;51.238;9.562;2022-08-03T02:46:38;18.60;93.00
3416;DHT22;1721;51.238;9.562;2022-08-03T02:49:05;18.60;93.00
3416;DHT22;1721;51.238;9.562;2022-08-03T02:51:34;18.60;92.90
3416;DHT22;1721;51.238;9.562;2022-08-03T02:54:01;18.60;93.00
3416;DHT22;1721;51.238;9.562;2022-08-03T02:56:27;18.50;93.10
3416;DHT22;1721;51.238;9.562;2022-08-03T02:58:55;18.60;93.20
3416;DHT22;1721;51.238;9.562;2022-08-03T03:01:23;18.50;93.10
3416;DHT22;1721;51.238;9.562;2022-08-03T03:03:51;18.50;93.20
3416;DHT22;1721;51.238;9.562;2022-08-03T03:06:18;18.60;93.20
3416;DHT22;1721;51.238;9.562;2022-08-03T03:08:46;18.60;93.20
3416;DHT22;1721;51.238;9.562;2022-08-03T03:11:13;18.60;93.20
3416;DHT22;1721;51.238;9.562;2022-08-03T03:13:41;18.60;93.20
3416;DHT22;1721;51.238;9.562;2022-08-03T03:16:09;18.60;93.20
3416;DHT22;1721;51.238;9.562;2022-08-03T03:18:37;18.60;93.20
3416;DHT22;1721;51.238;9.562;2022-08-03T03:21:03;18.50;93.20
3416;DHT22;1721;51.238;9.562;2022-08-03T03:23:30;18.50;93.20
3416;DHT22;1721;51.238;9.562;2022-08-03T03:25:56;18.50;93.20
3416;DHT22;1721;51.238;9.562;2022-08-03T03:28:23;18.50;93.20
3416;DHT22;1721;51.238;9.562;2022-08-03T03:30:50;18.50;93.20
3416;DHT22;1721;51.238;9.562;2022-08-03T03:33:16;18.50;93.30
3416;DHT22;1721;51.238;9.562;2022-08-03T03:35:42;18.40;93.40
3416;DHT22;1721;51.238;9.562;2022-08-03T03:38:10;18.50;93.50
3416;DHT22;1721;51.238;9.562;2022-08-03T03:40:37;18.40;93.40
3416;DHT22;1721;51.238;9.562;2022-08-03T03:43:06;18.50;93.50
3416;DHT22;1721;51.238;9.562;2022-08-03T03:45:33;18.40;93.40
3416;DHT22;1721;51.238;9.562;2022-08-03T03:48:00;18.40;93.40
3416;DHT22;1721;51.238;9.562;2022-08-03T03:50:27;18.50;93.30
3416;DHT22;1721;51.238;9.562;2022-08-03T03:52:52;18.40;93.30
3416;DHT22;1721;51.238;9.562;2022-08-03T03:55:18;18.50;93.30
3416;DHT22;1721;51.238;9.562;2022-08-03T03:57:44;18.40;93.40
3416;DHT22;1721;51.238;9.562;2022-08-03T04:00:12;18.40;93.30
3416;DHT22;1721;51.238;9.562;2022-08-03T04:02:38;18.40;93.30
3416;DHT22;1721;51.238;9.562;2022-08-03T04:05:04;18.40;93.40
3416;DHT22;1721;51.238;9.562;2022-08-03T04:08:06;18.40;93.40
3416;DHT22;1721;51.238;9.562;2022-08-03T04:13:35;18.40;93.40
3416;DHT22;1721;51.238;9.562;2022-08-03T04:16:01;18.40;93.50
3416;DHT22;1721;51.238;9.562;2022-08-03T04:18:29;18.40;93.50
3416;DHT22;1721;51.238;9.562;2022-08-03T04:20:59;18.40;93.50
3416;DHT22;1721;51.238;9.562;2022-08-03T04:23:26;18.50;93.60
3416;DHT22;1721;51.238;9.562;2022-08-03T04:25:53;18.40;93.50
3416;DHT22;1721;51.238;9.562;2022-08-03T04:28:21;18.50;93.60
3416;DHT22;1721;51.238;9.562;2022-08-03T04:30:48;18.50;93.60
3416;DHT22;1721;51.238;9.562;2022-08-03T04:33:16;18.50;93.70
3416;DHT22;1721;51.238;9.562;2022-08-03T04:35:45;18.60;93.80
3416;DHT22;1721;51.238;9.562;2022-08-03T04:38:13;18.60;93.70
3416;DHT22;1721;51.238;9.562;2022-08-03T04:40:41;18.60;93.90
3416;DHT22;1721;51.238;9.562;2022-08-03T04:43:09;18.60;93.90
3416;DHT22;1721;51.238;9.562;2022-08-03T04:45:35;18.60;93.90
3416;DHT22;1721;51.238;9.562;2022-08-03T04:48:02;18.60;94.00
3416;DHT22;1721;51.238;9.562;2022-08-03T04:50:28;18.50;94.10
3416;DHT22;1721;51.238;9.562;2022-08-03T04:52:55;18.60;94.30
3416;DHT22;1721;51.238;9.562;2022-08-03T04:55:27;18.80;93.90
3416;DHT22;1721;51.238;9.562;2022-08-03T04:57:53;18.90;94.00
3416;DHT22;1721;51.238;9.562;2022-08-03T05:00:19;19.00;94.00
3416;DHT22;1721;51.238;9.562;2022-08-03T05:02:45;19.20;94.00
3416;DHT22;1721;51.238;9.562;2022-08-03T05:05:11;19.30;93.90
3416;DHT22;1721;51.238;9.562;2022-08-03T05:07:36;19.40;93.90
3416;DHT22;1721;51.238;9.562;2022-08-03T05:10:06;19.40;94.00
3416;DHT22;1721;51.238;9.562;2022-08-03T05:12:33;19.40;94.20
3416;DHT22;1721;51.238;9.562;2022-08-03T05:14:59;19.60;94.10
3416;DHT22;1721;51.238;9.562;2022-08-03T05:17:24;19.90;94.00
3416;DHT22;1721;51.238;9.562;2022-08-03T05:19:50;20.30;93.90
3416;DHT22;1721;51.238;9.562;2022-08-03T05:22:15;20.50;93.40
3416;DHT22;1721;51.238;9.562;2022-08-03T05:24:41;20.90;93.10
3416;DHT22;1721;51.238;9.562;2022-08-03T05:27:06;21.20;92.70
3416;DHT22;1721;51.238;9.562;2022-08-03T05:29:32;21.40;92.60
3416;DHT22;1721;51.238;9.562;2022-08-03T05:31:57;21.50;92.40
3416;DHT22;1721;51.238;9.562;2022-08-03T05:34:23;21.80;92.20
3416;DHT22;1721;51.238;9.562;2022-08-03T05:36:48;21.90;91.80
3416;DHT22;1721;51.238;9.562;2022-08-03T05:39:14;22.20;91.70
3416;DHT22;1721;51.238;9.562;2022-08-03T05:41:40;22.10;90.50
3416;DHT22;1721;51.238;9.562;2022-08-03T05:44:05;22.40;90.10
3416;DHT22;1721;51.238;9.562;2022-08-03T05:46:31;22.70;89.90
3416;DHT22;1721;51.238;9.562;2022-08-03T05:48:56;22.80;88.60
3416;DHT22;1721;51.238;9.562;2022-08-03T05:51:22;23.00;89.20
3416;DHT22;1721;51.238;9.562;2022-08-03T05:53:48;22.90;88.50
3416;DHT22;1721;51.238;9.562;2022-08-03T05:56:13;23.00;88.60
3416;DHT22;1721;51.238;9.562;2022-08-03T05:58:39;23.20;88.70
3416;DHT22;1721;51.238;9.562;2022-08-03T06:01:05;23.40;88.90
3416;DHT22;1721;51.238;9.562;2022-08-03T06:03:30;23.50;88.20
3416;DHT22;1721;51.238;9.562;2022-08-03T06:05:56;23.60;87.30
3416;DHT22;1721;51.238;9.562;2022-08-03T06:08:22;23.70;87.30
3416;DHT22;1721;51.238;9.562;2022-08-03T06:10:49;23.50;87.70
3416;DHT22;1721;51.238;9.562;2022-08-03T06:13:14;23.50;87.00
3416;DHT22;1721;51.238;9.562;2022-08-03T06:15:40;23.60;86.60
3416;DHT22;1721;51.238;9.562;2022-08-03T06:18:06;23.50;86.60
3416;DHT22;1721;51.238;9.562;2022-08-03T06:20:32;23.40;85.90
3416;DHT22;1721;51.238;9.562;2022-08-03T06:22:58;23.30;86.40
3416;DHT22;1721;51.238;9.562;2022-08-03T06:25:24;23.30;86.90
3416;DHT22;1721;51.238;9.562;2022-08-03T06:27:50;23.50;86.50
3416;DHT22;1721;51.238;9.562;2022-08-03T06:30:16;23.60;87.10
3416;DHT22;1721;51.238;9.562;2022-08-03T06:32:43;23.60;87.00
3416;DHT22;1721;51.238;9.562;2022-08-03T06:35:09;23.60;87.10
3416;DHT22;1721;51.238;9.562;2022-08-03T06:38:01;23.80;87.10
3416;DHT22;1721;51.238;9.562;2022-08-03T06:40:27;24.30;87.50
3416;DHT22;1721;51.238;9.562;2022-08-03T06:42:57;24.80;84.30
3416;DHT22;1721;51.238;9.562;2022-08-03T06:45:23;25.30;82.60
3416;DHT22;1721;51.238;9.562;2022-08-03T06:47:59;25.50;82.90
3416;DHT22;1721;51.238;9.562;2022-08-03T06:50:25;25.40;83.00
3416;DHT22;1721;51.238;9.562;2022-08-03T06:52:51;25.90;82.50
3416;DHT22;1721;51.238;9.562;2022-08-03T06:55:16;26.50;78.50
3416;DHT22;1721;51.238;9.562;2022-08-03T06:57:42;27.10;75.60
3416;DHT22;1721;51.238;9.562;2022-08-03T07:00:08;27.60;77.20
3416;DHT22;1721;51.238;9.562;2022-08-03T07:02:34;28.00;76.80
3416;DHT22;1721;51.238;9.562;2022-08-03T07:04:59;28.00;74.50
3416;DHT22;1721;51.238;9.562;2022-08-03T07:07:25;27.90;76.40
3416;DHT22;1721;51.238;9.562;2022-08-03T07:09:50;28.30;71.60
3416;DHT22;1721;51.238;9.562;2022-08-03T07:12:16;27.90;69.70
3416;DHT22;1721;51.238;9.562;2022-08-03T07:14:41;28.30;70.30
3416;DHT22;1721;51.238;9.562;2022-08-03T07:17:07;28.40;67.70
3416;DHT22;1721;51.238;9.562;2022-08-03T07:19:32;28.70;68.50
3416;DHT22;1721;51.238;9.562;2022-08-03T07:21:58;28.90;65.10
3416;DHT22;1721;51.238;9.562;2022-08-03T07:24:23;28.90;66.00
3416;DHT22;1721;51.238;9.562;2022-08-03T07:26:49;28.90;64.00
3416;DHT22;1721;51.238;9.562;2022-08-03T07:29:14;28.80;62.90
3416;DHT22;1721;51.238;9.562;2022-08-03T07:31:40;28.90;65.00
3416;DHT22;1721;51.238;9.562;2022-08-03T07:34:06;29.20;62.40
3416;DHT22;1721;51.238;9.562;2022-08-03T07:36:32;29.00;64.20
3416;DHT22;1721;51.238;9.562;2022-08-03T07:38:57;28.90;65.40
3416;DHT22;1721;51.238;9.562;2022-08-03T07:41:23;28.80;64.60
3416;DHT22;1721;51.238;9.562;2022-08-03T07:43:48;28.30;61.80
3416;DHT22;1721;51.238;9.562;2022-08-03T07:46:14;28.40;64.20
3416;DHT22;1721;51.238;9.562;2022-08-03T07:48:40;28.70;64.40
3416;DHT22;1721;51.238;9.562;2022-08-03T07:51:05;28.30;63.30
3416;DHT22;1721;51.238;9.562;2022-08-03T07:53:31;28.20;61.70
3416;DHT22;1721;51.238;9.562;2022-08-03T07:55:57;28.20;60.30
3416;DHT22;1721;51.238;9.562;2022-08-03T07:58:22;27.90;61.00
3416;DHT22;1721;51.238;9.562;2022-08-03T08:00:49;27.90;64.30
3416;DHT22;1721;51.238;9.562;2022-08-03T08:03:17;28.00;63.90
3416;DHT22;1721;51.238;9.562;2022-08-03T08:05:43;27.60;63.80
3416;DHT22;1721;51.238;9.562;2022-08-03T08:08:09;27.90;64.30
3416;DHT22;1721;51.238;9.562;2022-08-03T08:10:35;28.00;63.70
3416;DHT22;1721;51.238;9.562;2022-08-03T08:13:02;27.90;66.10
3416;DHT22;1721;51.238;9.562;2022-08-03T08:15:27;27.60;66.20
3416;DHT22;1721;51.238;9.562;2022-08-03T08:17:56;27.60;64.00
3416;DHT22;1721;51.238;9.562;2022-08-03T08:20:28;27.60;63.60
3416;DHT22;1721;51.238;9.562;2022-08-03T08:23:00;27.90;66.70
3416;DHT22;1721;51.238;9.562;2022-08-03T08:25:26;27.50;64.80
3416;DHT22;1721;51.238;9.562;2022-08-03T08:27:52;27.60;65.90
3416;DHT22;1721;51.238;9.562;2022-08-03T08:30:19;27.50;66.00
3416;DHT22;1721;51.238;9.562;2022-08-03T08:32:45;27.60;66.50
3416;DHT22;1721;51.238;9.562;2022-08-03T08:35:11;27.40;65.60
3416;DHT22;1721;51.238;9.562;2022-08-03T08:37:37;27.50;67.30
3416;DHT22;1721;51.238;9.562;2022-08-03T08:40:04;27.70;65.90
3416;DHT22;1721;51.238;9.562;2022-08-03T08:42:31;27.80;65.90
3416;DHT22;1721;51.238;9.562;2022-08-03T08:44:58;27.80;65.60
3416;DHT22;1721;51.238;9.562;2022-08-03T08:47:25;27.80;66.90
3416;DHT22;1721;51.238;9.562;2022-08-03T08:49:54;28.00;66.40
3416;DHT22;1721;51.238;9.562;2022-08-03T08:52:27;27.60;65.90
3416;DHT22;1721;51.238;9.562;2022-08-03T08:54:59;27.90;67.50
3416;DHT22;1721;51.238;9.562;2022-08-03T08:57:28;28.10;67.30
3416;DHT22;1721;51.238;9.562;2022-08-03T08:59:55;27.90;66.00
3416;DHT22;1721;51.238;9.562;2022-08-03T09:02:22;28.00;66.60
3416;DHT22;1721;51.238;9.562;2022-08-03T09:04:49;27.70;65.60
3416;DHT22;1721;51.238;9.562;2022-08-03T09:07:15;27.70;67.10
3416;DHT22;1721;51.238;9.562;2022-08-03T09:09:42;27.70;67.20
3416;DHT22;1721;51.238;9.562;2022-08-03T09:12:07;27.90;66.70
3416;DHT22;1721;51.238;9.562;2022-08-03T09:14:33;27.80;68.20
3416;DHT22;1721;51.238;9.562;2022-08-03T09:17:01;27.90;68.60
3416;DHT22;1721;51.238;9.562;2022-08-03T09:19:28;28.00;69.90
3416;DHT22;1721;51.238;9.562;2022-08-03T09:22:17;28.10;66.50
3416;DHT22;1721;51.238;9.562;2022-08-03T09:24:56;28.30;66.70
3416;DHT22;1721;51.238;9.562;2022-08-03T09:27:23;28.60;65.60
3416;DHT22;1721;51.238;9.562;2022-08-03T09:29:53;28.60;67.30
3416;DHT22;1721;51.238;9.562;2022-08-03T09:32:20;28.40;66.30
3416;DHT22;1721;51.238;9.562;2022-08-03T09:34:51;28.10;66.00
3416;DHT22;1721;51.238;9.562;2022-08-03T09:37:19;28.10;65.20
3416;DHT22;1721;51.238;9.562;2022-08-03T09:39:46;27.80;68.20
3416;DHT22;1721;51.238;9.562;2022-08-03T09:42:17;27.70;67.50
3416;DHT22;1721;51.238;9.562;2022-08-03T09:44:48;28.00;65.00
3416;DHT22;1721;51.238;9.562;2022-08-03T09:47:26;28.00;67.00
3416;DHT22;1721;51.238;9.562;2022-08-03T09:49:58;28.00;67.50
3416;DHT22;1721;51.238;9.562;2022-08-03T09:52:31;28.00;66.70
3416;DHT22;1721;51.238;9.562;2022-08-03T09:54:58;27.90;67.30
3416;DHT22;1721;51.238;9.562;2022-08-03T09:57:25;28.10;66.50
3416;DHT22;1721;51.238;9.562;2022-08-03T09:59:52;28.20;63.50
3416;DHT22;1721;51.238;9.562;2022-08-03T10:02:23;28.00;61.20
3416;DHT22;1721;51.238;9.562;2022-08-03T10:04:50;27.70;63.20
3416;DHT22;1721;51.238;9.562;2022-08-03T10:07:18;27.40;63.40
3416;DHT22;1721;51.238;9.562;2022-08-03T10:09:58;27.50;65.80
3416;DHT22;1721;51.238;9.562;2022-08-03T10:12:24;27.80;66.70
3416;DHT22;1721;51.238;9.562;2022-08-03T10:14:50;28.10;66.50
3416;DHT22;1721;51.238;9.562;2022-08-03T10:17:17;28.20;65.20
3416;DHT22;1721;51.238;9.562;2022-08-03T10:19:42;28.10;63.20
3416;DHT22;1721;51.238;9.562;2022-08-03T10:22:22;28.00;64.90
3416;DHT22;1721;51.238;9.562;2022-08-03T10:27:32;28.00;66.60
3416;DHT22;1721;51.238;9.562;2022-08-03T10:30:01;28.10;64.30
3416;DHT22;1721;51.238;9.562;2022-08-03T10:32:43;28.20;64.50
3416;DHT22;1721;51.238;9.562;2022-08-03T10:35:12;28.40;63.20
3416;DHT22;1721;51.238;9.562;2022-08-03T10:37:44;28.60;65.10
3416;DHT22;1721;51.238;9.562;2022-08-03T10:40:14;28.60;64.10
3416;DHT22;1721;51.238;9.562;2022-08-03T10:42:44;28.50;64.70
3416;DHT22;1721;51.238;9.562;2022-08-03T10:45:18;28.50;62.00
3416;DHT22;1721;51.238;9.562;2022-08-03T10:47:45;28.30;62.70
3416;DHT22;1721;51.238;9.562;2022-08-03T10:50:11;28.10;64.10
3416;DHT22;1721;51.238;9.562;2022-08-03T10:52:57;28.10;64.80
3416;DHT22;1721;51.238;9.562;2022-08-03T10:55:49;28.30;62.20
3416;DHT22;1721;51.238;9.562;2022-08-03T11:01:11;28.90;60.50
3416;DHT22;1721;51.238;9.562;2022-08-03T11:06:20;28.60;57.90
3416;DHT22;1721;51.238;9.562;2022-08-03T11:08:47;28.50;63.80
3416;DHT22;1721;51.238;9.562;2022-08-03T11:14:03;28.80;60.70
3416;DHT22;1721;51.238;9.562;2022-08-03T11:16:35;28.50;60.80
3416;DHT22;1721;51.238;9.562;2022-08-03T11:19:02;28.60;62.60
3416;DHT22;1721;51.238;9.562;2022-08-03T11:27:22;28.50;60.90
3416;DHT22;1721;51.238;9.562;2022-08-03T11:30:04;28.70;62.20
3416;DHT22;1721;51.238;9.562;2022-08-03T11:35:10;28.90;63.60
3416;DHT22;1721;51.238;9.562;2022-08-03T11:40:43;28.60;61.40
3416;DHT22;1721;51.238;9.562;2022-08-03T11:50:53;29.10;60.50
3416;DHT22;1721;51.238;9.562;2022-08-03T11:53:19;28.90;59.10
3416;DHT22;1721;51.238;9.562;2022-08-03T11:55:46;28.70;61.30
3416;DHT22;1721;51.238;9.562;2022-08-03T11:58:19;28.90;62.20
3416;DHT22;1721;51.238;9.562;2022-08-03T12:00:45;28.80;61.80
3416;DHT22;1721;51.238;9.562;2022-08-03T12:03:12;28.90;61.60
3416;DHT22;1721;51.238;9.562;2022-08-03T12:05:51;28.90;58.90
3416;DHT22;1721;51.238;9.562;2022-08-03T12:08:31;28.90;61.60
3416;DHT22;1721;51.238;9.562;2022-08-03T12:10:59;29.20;60.80
3416;DHT22;1721;51.238;9.562;2022-08-03T12:13:25;29.20;61.70
3416;DHT22;1721;51.238;9.562;2022-08-03T12:15:55;29.10;59.40
3416;DHT22;1721;51.238;9.562;2022-08-03T12:18:22;29.10;61.70
3416;DHT22;1721;51.238;9.562;2022-08-03T12:20:50;29.20;61.10
3416;DHT22;1721;51.238;9.562;2022-08-03T12:23:16;29.20;59.70
3416;DHT22;1721;51.238;9.562;2022-08-03T12:25:43;29.40;58.60
3416;DHT22;1721;51.238;9.562;2022-08-03T12:28:18;29.40;58.60
3416;DHT22;1721;51.238;9.562;2022-08-03T12:30:46;29.70;60.30
3416;DHT22;1721;51.238;9.562;2022-08-03T12:33:25;29.80;57.10
3416;DHT22;1721;51.238;9.562;2022-08-03T12:36:06;29.70;59.60
3416;DHT22;1721;51.238;9.562;2022-08-03T12:38:37;29.80;58.40
3416;DHT22;1721;51.238;9.562;2022-08-03T12:41:06;30.10;58.10
3416;DHT22;1721;51.238;9.562;2022-08-03T12:43:33;30.20;61.70
3416;DHT22;1721;51.238;9.562;2022-08-03T12:46:09;30.40;60.50
3416;DHT22;1721;51.238;9.562;2022-08-03T12:48:35;30.10;57.90
3416;DHT22;1721;51.238;9.562;2022-08-03T12:51:08;29.70;55.40
3416;DHT22;1721;51.238;9.562;2022-08-03T12:53:34;29.80;58.10
3416;DHT22;1721;51.238;9.562;2022-08-03T12:56:04;29.70;57.90
3416;DHT22;1721;51.238;9.562;2022-08-03T12:58:32;29.80;54.30
3416;DHT22;1721;51.238;9.562;2022-08-03T13:00:58;29.80;55.90
3416;DHT22;1721;51.238;9.562;2022-08-03T13:03:23;29.70;55.50
3416;DHT22;1721;51.238;9.562;2022-08-03T13:05:49;30.00;53.90
3416;DHT22;1721;51.238;9.562;2022-08-03T13:08:19;30.10;55.60
3416;DHT22;1721;51.238;9.562;2022-08-03T13:10:45;30.10;55.10
3416;DHT22;1721;51.238;9.562;2022-08-03T13:13:10;30.00;55.30
3416;DHT22;1721;51.238;9.562;2022-08-03T13:15:36;29.90;57.70
3416;DHT22;1721;51.238;9.562;2022-08-03T13:18:02;29.90;58.00
3416;DHT22;1721;51.238;9.562;2022-08-03T13:20:27;29.90;58.50
3416;DHT22;1721;51.238;9.562;2022-08-03T13:22:53;29.80;57.00
3416;DHT22;1721;51.238;9.562;2022-08-03T13:25:18;29.60;58.00
3416;DHT22;1721;51.238;9.562;2022-08-03T13:27:45;29.20;56.40
3416;DHT22;1721;51.238;9.562;2022-08-03T13:30:11;29.30;57.80
3416;DHT22;1721;51.238;9.562;2022-08-03T13:32:36;29.60;57.40
3416;DHT22;1721;51.238;9.562;2022-08-03T13:35:03;29.70;56.60
3416;DHT22;1721;51.238;9.562;2022-08-03T13:37:29;29.60;57.10
3416;DHT22;1721;51.238;9.562;2022-08-03T13:39:56;29.50;57.90
3416;DHT22;1721;51.238;9.562;2022-08-03T13:42:22;29.40;57.60
3416;DHT22;1721;51.238;9.562;2022-08-03T13:44:48;29.90;57.90
3416;DHT22;1721;51.238;9.562;2022-08-03T13:47:14;30.20;55.80
3416;DHT22;1721;51.238;9.562;2022-08-03T13:49:39;30.00;58.40
3416;DHT22;1721;51.238;9.562;2022-08-03T13:52:05;30.00;56.70
3416;DHT22;1721;51.238;9.562;2022-08-03T13:54:30;29.70;56.90
3416;DHT22;1721;51.238;9.562;2022-08-03T13:56:58;30.10;57.00
3416;DHT22;1721;51.238;9.562;2022-08-03T13:59:24;30.10;54.80
3416;DHT22;1721;51.238;9.562;2022-08-03T14:01:51;30.10;53.80
3416;DHT22;1721;51.238;9.562;2022-08-03T14:04:18;30.50;55.60
3416;DHT22;1721;51.238;9.562;2022-08-03T14:06:44;30.40;56.60
3416;DHT22;1721;51.238;9.562;2022-08-03T14:09:11;30.20;57.10
3416;DHT22;1721;51.238;9.562;2022-08-03T14:11:38;30.10;57.10
3416;DHT22;1721;51.238;9.562;2022-08-03T14:14:03;30.00;56.70
3416;DHT22;1721;51.238;9.562;2022-08-03T14:16:29;30.00;57.10
3416;DHT22;1721;51.238;9.562;2022-08-03T14:18:54;29.70;57.20
3416;DHT22;1721;51.238;9.562;2022-08-03T14:21:20;29.80;57.20
3416;DHT22;1721;51.238;9.562;2022-08-03T14:23:45;29.80;58.20
3416;DHT22;1721;51.238;9.562;2022-08-03T14:26:11;30.00;57.40
3416;DHT22;1721;51.238;9.562;2022-08-03T14:28:38;30.00;59.80
3416;DHT22;1721;51.238;9.562;2022-08-03T14:31:04;30.10;57.50
3416;DHT22;1721;51.238;9.562;2022-08-03T14:33:30;30.30;56.00
3416;DHT22;1721;51.238;9.562;2022-08-03T14:35:55;30.10;55.80
3416;DHT22;1721;51.238;9.562;2022-08-03T14:38:21;30.00;56.50
3416;DHT22;1721;51.238;9.562;2022-08-03T14:40:48;30.00;58.00
3416;DHT22;1721;51.238;9.562;2022-08-03T14:43:14;30.00;57.50
3416;DHT22;1721;51.238;9.562;2022-08-03T14:45:42;29.90;56.30
3416;DHT22;1721;51.238;9.562;2022-08-03T14:48:08;29.80;54.70
3416;DHT22;1721;51.238;9.562;2022-08-03T14:50:33;29.80;56.50
3416;DHT22;1721;51.238;9.562;2022-08-03T14:52:59;29.90;56.70
3416;DHT22;1721;51.238;9.562;2022-08-03T14:55:24;29.80;56.40
3416;DHT22;1721;51.238;9.562;2022-08-03T14:57:50;30.20;55.90
3416;DHT22;1721;51.238;9.562;2022-08-03T15:00:16;30.10;57.90
3416;DHT22;1721;51.238;9.562;2022-08-03T15:02:41;30.00;56.10
3416;DHT22;1721;51.238;9.562;2022-08-03T15:05:07;30.10;57.70
3416;DHT22;1721;51.238;9.562;2022-08-03T15:07:35;30.10;57.20
3416;DHT22;1721;51.238;9.562;2022-08-03T15:10:00;30.50;56.30
3416;DHT22;1721;51.238;9.562;2022-08-03T15:12:26;30.60;57.00
3416;DHT22;1721;51.238;9.562;2022-08-03T15:14:51;30.40;55.50
3416;DHT22;1721;51.238;9.562;2022-08-03T15:17:17;30.20;56.30
3416;DHT22;1721;51.238;9.562;2022-08-03T15:19:42;29.90;55.00
3416;DHT22;1721;51.238;9.562;2022-08-03T15:22:08;30.10;55.50
3416;DHT22;1721;51.238;9.562;2022-08-03T15:24:33;30.20;54.30
3416;DHT22;1721;51.238;9.562;2022-08-03T15:26:59;30.20;53.30
3416;DHT22;1721;51.238;9.562;2022-08-03T15:29:25;30.40;55.60
3416;DHT22;1721;51.238;9.562;2022-08-03T15:31:50;30.60;55.50
3416;DHT22;1721;51.238;9.562;2022-08-03T15:34:16;30.80;53.60
3416;DHT22;1721;51.238;9.562;2022-08-03T15:36:42;30.80;55.00
3416;DHT22;1721;51.238;9.562;2022-08-03T15:39:08;30.50;57.20
3416;DHT22;1721;51.238;9.562;2022-08-03T15:41:34;30.80;55.20
3416;DHT22;1721;51.238;9.562;2022-08-03T15:44:01;30.90;55.30
3416;DHT22;1721;51.238;9.562;2022-08-03T15:46:26;31.10;52.60
3416;DHT22;1721;51.238;9.562;2022-08-03T15:48:52;31.00;52.40
3416;DHT22;1721;51.238;9.562;2022-08-03T15:51:17;30.60;52.40
3416;DHT22;1721;51.238;9.562;2022-08-03T15:53:43;30.50;54.00
3416;DHT22;1721;51.238;9.562;2022-08-03T15:56:09;30.50;53.30
3416;DHT22;1721;51.238;9.562;2022-08-03T15:58:36;30.70;52.80
3416;DHT22;1721;51.238;9.562;2022-08-03T16:01:03;30.40;53.40
3416;DHT22;1721;51.238;9.562;2022-08-03T16:03:29;30.50;54.60
3416;DHT22;1721;51.238;9.562;2022-08-03T16:06:05;30.40;53.80
3416;DHT22;1721;51.238;9.562;2022-08-03T16:08:31;30.40;55.30
3416;DHT22;1721;51.238;9.562;2022-08-03T16:10:58;30.20;53.70
3416;DHT22;1721;51.238;9.562;2022-08-03T16:13:24;30.40;52.40
3416;DHT22;1721;51.238;9.562;2022-08-03T16:15:50;30.30;55.00
3416;DHT22;1721;51.238;9.562;2022-08-03T16:18:16;30.20;55.60
3416;DHT22;1721;51.238;9.562;2022-08-03T16:20:42;30.30;53.50
3416;DHT22;1721;51.238;9.562;2022-08-03T16:23:09;30.30;55.30
3416;DHT22;1721;51.238;9.562;2022-08-03T16:25:35;30.40;55.30
3416;DHT22;1721;51.238;9.562;2022-08-03T16:28:01;30.40;55.10
3416;DHT22;1721;51.238;9.562;2022-08-03T16:30:29;30.50;55.20
3416;DHT22;1721;51.238;9.562;2022-08-03T16:32:54;30.60;55.50
3416;DHT22;1721;51.238;9.562;2022-08-03T16:35:20;30.50;57.00
3416;DHT22;1721;51.238;9.562;2022-08-03T16:37:45;30.50;56.40
3416;DHT22;1721;51.238;9.562;2022-08-03T16:40:12;30.10;58.50
3416;DHT22;1721;51.238;9.562;2022-08-03T16:42:37;30.30;58.20
3416;DHT22;1721;51.238;9.562;2022-08-03T16:45:04;29.90;57.40
3416;DHT22;1721;51.238;9.562;2022-08-03T16:47:30;29.80;57.80